createdAt,value
2022-12-13T00:02:25.960Z,13.73
2022-12-13T00:07:27.768Z,14.10
2022-12-13T00:12:29.446Z,15.07
2022-12-13T00:17:32.658Z,14.48
2022-12-13T00:22:34.334Z,13.35
2022-12-13T00:27:36.038Z,13.27
2022-12-13T00:32:37.899Z,13.80
2022-12-13T00:37:39.597Z,14.33
2022-12-13T00:42:41.254Z,13.80
2022-12-13T00:47:42.929Z,13.83
2022-12-13T00:52:44.611Z,12.47
2022-12-13T00:57:46.247Z,13.43
2022-12-13T01:02:48.023Z,14.30
2022-12-13T01:07:49.832Z,13.50
2022-12-13T01:12:51.740Z,12.60
2022-12-13T01:17:53.406Z,13.63
2022-12-13T01:22:55.065Z,13.40
2022-12-13T01:27:56.779Z,13.00
2022-12-13T01:32:58.943Z,12.87
2022-12-13T01:38:00.612Z,13.17
2022-12-13T01:43:02.593Z,12.13
2022-12-13T01:48:29.062Z,13.73
2022-12-13T01:53:34.929Z,13.27
2022-12-13T01:58:38.347Z,13.30
2022-12-13T02:03:40.106Z,12.40
2022-12-13T02:08:44.283Z,12.63
2022-12-13T02:13:46.027Z,12.30
2022-12-13T02:18:56.840Z,12.43
2022-12-13T02:24:23.743Z,12.97
2022-12-13T02:29:37.551Z,12.97
2022-12-13T02:35:02.449Z,12.57
2022-12-13T02:40:08.148Z,12.80
2022-12-13T02:45:21.256Z,13.43
2022-12-13T02:50:25.401Z,12.80
2022-12-13T02:55:28.419Z,11.87
2022-12-13T03:00:58.051Z,13.80
2022-12-13T03:06:34.322Z,12.20
2022-12-13T03:12:21.079Z,12.03
2022-12-13T03:17:25.565Z,12.10
2022-12-13T03:22:27.246Z,13.97
2022-12-13T03:27:28.990Z,12.27
2022-12-13T03:32:30.693Z,13.57
2022-12-13T03:37:33.397Z,13.40
2022-12-13T03:42:35.097Z,14.20
2022-12-13T03:47:36.774Z,12.60
2022-12-13T03:52:38.474Z,12.77
2022-12-13T03:57:40.212Z,13.80
2022-12-13T04:02:41.974Z,12.90
2022-12-13T04:07:48.310Z,11.53
2022-12-13T04:13:09.064Z,11.97
2022-12-13T04:18:10.742Z,12.73
2022-12-13T04:23:12.539Z,13.23
2022-12-13T04:28:22.968Z,13.03
2022-12-13T04:33:25.032Z,12.63
2022-12-13T04:38:26.929Z,11.50
2022-12-13T04:43:28.593Z,12.17
2022-12-13T04:48:32.341Z,11.53
2022-12-13T04:53:34.013Z,10.90
2022-12-13T04:58:35.722Z,12.30
2022-12-13T05:03:39.289Z,12.37
2022-12-13T05:08:41.166Z,11.63
2022-12-13T05:13:42.899Z,11.90
2022-12-13T05:18:44.577Z,11.87
2022-12-13T05:23:46.239Z,10.70
2022-12-13T05:28:47.992Z,12.43
2022-12-13T05:33:49.672Z,11.70
2022-12-13T05:38:54.636Z,11.87
2022-12-13T05:43:56.925Z,11.53
2022-12-13T05:48:58.664Z,12.30
2022-12-13T05:54:00.371Z,11.47
2022-12-13T05:59:02.062Z,11.63
2022-12-13T06:04:03.723Z,10.53
2022-12-13T06:09:05.472Z,11.53
2022-12-13T06:14:21.384Z,11.40
2022-12-13T06:19:25.105Z,10.70
2022-12-13T06:24:27.744Z,10.07
2022-12-13T06:29:29.417Z,11.70
2022-12-13T06:34:36.314Z,10.87
2022-12-13T06:39:38.354Z,12.07
2022-12-13T06:44:41.730Z,10.63
2022-12-13T06:49:44.404Z,10.33
2022-12-13T06:54:46.499Z,11.33
2022-12-13T06:59:48.241Z,10.70
2022-12-13T07:04:49.924Z,11.23
2022-12-13T07:09:52.006Z,10.73
2022-12-13T07:14:54.923Z,11.10
2022-12-13T07:19:56.624Z,11.20
2022-12-13T07:25:04.997Z,10.53
2022-12-13T07:30:07.079Z,10.50
2022-12-13T07:35:09.077Z,10.40
2022-12-13T07:40:11.369Z,11.20
2022-12-13T07:45:13.111Z,10.07
2022-12-13T07:50:24.139Z,10.20
2022-12-13T07:55:33.572Z,9.40
2022-12-13T08:00:40.176Z,11.07
2022-12-13T08:05:42.199Z,10.67
2022-12-13T08:10:47.158Z,11.10
2022-12-13T08:15:48.925Z,9.57
2022-12-13T08:20:50.653Z,10.63
2022-12-13T08:25:54.001Z,10.63
2022-12-13T08:30:55.963Z,11.40
2022-12-13T08:35:57.753Z,10.57
2022-12-13T08:40:59.492Z,11.50
2022-12-13T08:46:01.786Z,10.83
2022-12-13T08:51:06.876Z,10.93
2022-12-13T08:56:11.869Z,12.40
2022-12-13T09:01:13.550Z,11.10
2022-12-13T09:06:17.188Z,10.17
2022-12-13T09:11:22.405Z,10.37
2022-12-13T09:16:27.421Z,11.73
2022-12-13T09:21:31.769Z,11.27
2022-12-13T09:26:37.784Z,11.67
2022-12-13T09:31:40.983Z,12.17
2022-12-13T09:36:42.990Z,11.53
2022-12-13T09:41:49.420Z,11.47
2022-12-13T09:46:53.251Z,12.57
2022-12-13T09:52:21.525Z,13.13
2022-12-13T09:57:34.233Z,12.87
2022-12-13T10:02:43.664Z,12.60
2022-12-13T10:07:46.036Z,13.20
2022-12-13T10:13:07.970Z,11.83
2022-12-13T10:18:14.960Z,13.87
2022-12-13T10:23:38.521Z,14.57
2022-12-13T10:28:39.358Z,12.97
2022-12-13T10:33:53.971Z,12.97
2022-12-13T10:38:55.989Z,13.07
2022-12-13T10:44:15.644Z,13.00
2022-12-13T10:49:22.640Z,12.17
2022-12-13T10:54:38.795Z,13.47
2022-12-13T10:59:51.355Z,11.83
2022-12-13T11:04:53.041Z,13.17
2022-12-13T11:09:55.096Z,13.60
2022-12-13T11:15:07.640Z,12.17
2022-12-13T11:20:31.628Z,11.77
2022-12-13T11:25:40.684Z,11.67
2022-12-13T11:31:10.891Z,12.25
2022-12-13T11:36:40.536Z,11.70
2022-12-13T11:42:22.627Z,11.60
2022-12-13T11:47:58.156Z,12.37
2022-12-13T11:53:16.921Z,11.50
2022-12-13T11:59:01.686Z,10.63
2022-12-13T12:04:13.096Z,11.40
2022-12-13T12:09:17.651Z,11.68
2022-12-13T12:14:36.013Z,10.88
2022-12-13T12:19:40.411Z,10.40
2022-12-13T12:24:54.266Z,10.57
2022-12-13T12:30:28.680Z,10.85
2022-12-13T12:35:45.738Z,10.75
2022-12-13T12:41:17.565Z,11.23
2022-12-13T12:47:09.162Z,10.43
2022-12-13T12:52:47.677Z,9.25
2022-12-13T12:58:39.156Z,9.55
2022-12-13T13:03:43.300Z,9.63
2022-12-13T13:09:03.652Z,9.63
2022-12-13T13:14:24.023Z,8.63
2022-12-13T13:19:31.647Z,8.88
2022-12-13T13:24:34.620Z,10.32
2022-12-13T13:29:43.340Z,9.45
2022-12-13T13:34:47.989Z,10.23
2022-12-13T13:39:52.980Z,10.45
2022-12-13T13:45:19.112Z,10.25
2022-12-13T13:50:47.208Z,11.32
2022-12-13T13:56:10.194Z,11.15
2022-12-13T14:01:11.920Z,11.05
2022-12-13T14:06:32.115Z,10.27
2022-12-13T14:12:09.066Z,10.02
2022-12-13T14:17:45.065Z,11.10
2022-12-13T14:23:07.441Z,11.45
2022-12-13T14:28:37.976Z,11.18
2022-12-13T14:33:47.397Z,11.55
2022-12-13T14:39:00.379Z,10.95
2022-12-13T14:44:31.579Z,11.85
2022-12-13T14:49:48.604Z,11.85
2022-12-13T14:55:00.217Z,12.48
2022-12-13T15:00:25.731Z,12.30
2022-12-13T15:05:47.011Z,12.07
2022-12-13T15:10:57.496Z,11.63
2022-12-13T15:16:01.973Z,12.73
2022-12-13T15:21:23.304Z,13.35
2022-12-13T15:26:27.571Z,12.27
2022-12-13T15:31:34.229Z,11.47
2022-12-13T15:36:38.497Z,11.63
2022-12-13T15:41:46.759Z,11.53
2022-12-13T15:46:51.273Z,12.10
2022-12-13T15:52:02.660Z,13.53
2022-12-13T15:57:14.682Z,12.20
2022-12-13T16:02:24.986Z,11.60
2022-12-13T16:07:37.682Z,12.30
2022-12-13T16:12:47.855Z,11.20
2022-12-13T16:17:52.373Z,12.60
2022-12-13T16:22:54.178Z,12.47
2022-12-13T16:28:01.846Z,11.40
2022-12-13T16:33:18.712Z,11.87
2022-12-13T16:38:26.825Z,10.87
2022-12-13T16:43:34.046Z,10.60
2022-12-13T16:48:36.506Z,11.60
2022-12-13T16:53:38.323Z,11.47
2022-12-13T16:58:43.494Z,10.53
2022-12-13T17:03:49.713Z,11.43
2022-12-13T17:08:51.444Z,11.63
2022-12-13T17:13:53.135Z,13.27
2022-12-13T17:18:57.794Z,17.13
2022-12-13T17:24:01.573Z,12.97
2022-12-13T17:29:03.610Z,13.83
2022-12-13T17:34:05.337Z,13.63
2022-12-13T17:39:07.135Z,13.17
2022-12-13T17:44:08.881Z,12.67
2022-12-13T17:49:11.933Z,14.93
2022-12-13T17:54:13.614Z,15.73
2022-12-13T17:59:15.815Z,16.23
2022-12-13T18:04:17.574Z,15.37
2022-12-13T18:09:19.337Z,14.10
2022-12-13T18:14:21.022Z,14.90
2022-12-13T18:19:25.753Z,13.87
2022-12-13T18:24:27.689Z,14.30
2022-12-13T18:29:29.475Z,14.00
2022-12-13T18:34:31.219Z,13.67
2022-12-13T18:39:34.667Z,13.17
2022-12-13T18:44:36.446Z,13.37
2022-12-13T18:49:38.145Z,12.90
2022-12-13T18:54:40.980Z,13.20
2022-12-13T18:59:43.579Z,13.60
2022-12-13T19:04:56.237Z,13.07
2022-12-13T19:09:57.956Z,13.57
2022-12-13T19:14:59.640Z,13.10
2022-12-13T19:20:02.219Z,13.53
2022-12-13T19:25:04.310Z,13.73
2022-12-13T19:30:06.614Z,13.53
2022-12-13T19:35:08.757Z,14.47
2022-12-13T19:40:10.922Z,13.93
2022-12-13T19:45:12.569Z,13.27
2022-12-13T19:50:14.308Z,12.37
2022-12-13T19:55:15.967Z,12.13
2022-12-13T20:00:17.803Z,12.13
2022-12-13T20:05:19.803Z,12.27
2022-12-13T20:10:21.565Z,13.37
2022-12-13T20:15:23.307Z,12.13
2022-12-13T20:20:31.500Z,12.67
2022-12-13T20:25:38.072Z,12.57
2022-12-13T20:30:39.718Z,12.93
2022-12-13T20:36:14.910Z,13.37
2022-12-13T20:41:06.264Z,13.60
2022-12-13T20:46:13.765Z,13.67
2022-12-13T20:51:18.726Z,11.80
2022-12-13T20:56:22.882Z,11.97
2022-12-13T21:01:27.248Z,13.73
2022-12-13T21:06:30.370Z,12.87
2022-12-13T21:11:36.416Z,13.17
2022-12-13T21:16:58.606Z,13.23
2022-12-13T21:22:00.420Z,13.97
2022-12-13T21:27:02.218Z,13.83
2022-12-13T21:32:04.091Z,13.03
2022-12-13T21:37:05.937Z,13.13
2022-12-13T21:42:07.645Z,12.17
2022-12-13T21:47:12.402Z,13.07
2022-12-13T21:52:14.772Z,13.93
2022-12-13T21:57:36.021Z,13.27
2022-12-13T22:02:37.734Z,13.40
2022-12-13T22:07:39.503Z,13.57
2022-12-13T22:12:41.826Z,13.77
2022-12-13T22:17:43.498Z,14.07
2022-12-13T22:22:46.965Z,12.57
2022-12-13T22:27:48.716Z,13.67
2022-12-13T22:32:52.196Z,13.73
2022-12-13T22:37:58.805Z,14.40
2022-12-13T22:43:03.102Z,12.73
2022-12-13T22:48:05.322Z,14.00
2022-12-13T22:53:07.224Z,13.40
2022-12-13T22:58:08.926Z,13.10
2022-12-13T23:03:10.951Z,12.77
2022-12-13T23:08:12.679Z,12.53
2022-12-13T23:13:14.621Z,12.67
2022-12-13T23:18:16.408Z,14.67
2022-12-13T23:23:18.096Z,14.27
2022-12-13T23:28:19.776Z,12.80
2022-12-13T23:33:21.440Z,13.40
2022-12-13T23:38:23.170Z,13.87
2022-12-13T23:43:24.868Z,12.27
2022-12-13T23:48:27.397Z,12.90
2022-12-13T23:53:29.650Z,12.83
2022-12-13T23:58:31.308Z,13.03
